Time;durP1;ratioP1;P1;durP2;ratioP2;P2;SDS_P1;SDS_P2;PMS_P1;PMS_P2;Temp;Humidity;BMP_temperature;BMP_pressure;BME280_temperature;BME280_humidity;BME280_pressure;Samples;Min_cycle;Max_cycle;Signal;HPM_P1;HPM_P2
2021/01/09 00:01:39;;;;;;;6.33;5.67;;;;;;;0.20;70.30;98311.78;1828706;78;21435;-66
2021/01/09 00:04:08;;;;;;;5.62;4.85;;;;;;;0.19;70.29;98310.08;1828664;78;20963;-65
2021/01/09 00:06:38;;;;;;;9.20;5.97;;;;;;;0.18;70.25;98316.26;1826566;78;21142;-64
2021/01/09 00:09:07;;;;;;;5.90;5.30;;;;;;;0.18;70.07;98314.47;1814757;79;20980;-66
2021/01/09 00:11:36;;;;;;;6.95;5.40;;;;;;;0.19;70.51;98316.67;1814759;79;20963;-65
2021/01/09 00:14:03;;;;;;;7.20;6.47;;;;;;;0.18;70.62;98316.26;1814813;79;21413;-65
2021/01/09 00:16:31;;;;;;;5.87;5.12;;;;;;;0.18;70.46;98316.26;1814774;79;20877;-66
2021/01/09 00:18:58;;;;;;;7.08;6.10;;;;;;;0.17;70.26;98321.12;1814818;79;20920;-65
2021/01/09 00:21:36;;;;;;;6.80;5.60;;;;;;;0.17;70.18;98314.52;1814799;79;20959;-65
2021/01/09 00:24:07;;;;;;;6.85;6.00;;;;;;;0.15;70.14;98313.70;1814729;79;21070;-65
2021/01/09 00:26:35;;;;;;;6.58;5.80;;;;;;;0.15;70.28;98313.23;1814857;79;21261;-64
2021/01/09 00:29:06;;;;;;;8.43;5.87;;;;;;;0.15;70.48;98313.70;1814736;79;20932;-65
2021/01/09 00:31:35;;;;;;;6.87;5.97;;;;;;;0.16;70.57;98323.38;1814791;79;20975;-64
2021/01/09 00:34:03;;;;;;;6.58;5.92;;;;;;;0.15;70.18;98325.59;1814802;79;20912;-65
2021/01/09 00:36:30;;;;;;;7.35;5.80;;;;;;;0.13;70.00;98323.45;1814808;79;20865;-65
2021/01/09 00:38:58;;;;;;;7.17;5.95;;;;;;;0.15;70.00;98322.95;1814752;79;21261;-65
2021/01/09 00:41:28;;;;;;;7.47;5.75;;;;;;;0.14;69.98;98320.77;1814759;79;20963;-64
2021/01/09 00:43:56;;;;;;;6.90;5.70;;;;;;;0.13;70.11;98319.49;1814774;79;20968;-64
2021/01/09 00:46:25;;;;;;;8.08;6.87;;;;;;;0.15;69.98;98326.91;1814736;79;21509;-66
2021/01/09 00:48:52;;;;;;;9.23;6.83;;;;;;;0.14;70.06;98326.48;1814827;79;20921;-65
2021/01/09 00:51:21;;;;;;;7.90;6.25;;;;;;;0.14;70.14;98327.38;1814940;79;21343;-64
2021/01/09 00:53:49;;;;;;;7.55;6.17;;;;;;;0.15;70.07;98329.08;1814813;79;21427;-65
2021/01/09 00:56:17;;;;;;;7.50;6.00;;;;;;;0.15;70.00;98326.91;1814786;79;21544;-65
2021/01/09 00:58:49;;;;;;;7.45;6.42;;;;;;;0.16;70.06;98332.15;1814703;79;21027;-66
2021/01/09 01:01:18;;;;;;;6.80;5.67;;;;;;;0.17;69.88;98330.36;1815071;79;20908;-65
2021/01/09 01:03:46;;;;;;;6.22;5.60;;;;;;;0.16;69.97;98333.47;1814769;79;21248;-66
2021/01/09 01:06:14;;;;;;;8.03;7.12;;;;;;;0.18;70.12;98332.11;1814812;78;20944;-65
2021/01/09 01:08:41;;;;;;;7.92;7.05;;;;;;;0.17;70.39;98331.25;1806694;78;20900;-65
2021/01/09 01:11:09;;;;;;;7.85;6.22;;;;;;;0.18;70.49;98327.67;1805662;79;20912;-66
2021/01/09 01:13:36;;;;;;;7.65;5.95;;;;;;;0.19;70.42;98333.84;1805671;79;20961;-65
2021/01/09 01:16:05;;;;;;;6.17;5.03;;;;;;;0.18;70.32;98331.64;1805649;79;21330;-65
2021/01/09 01:18:32;;;;;;;5.70;4.95;;;;;;;0.20;70.38;98338.20;1805630;79;20945;-65
2021/01/09 01:21:00;;;;;;;5.20;4.70;;;;;;;0.21;70.48;98334.66;1805773;79;20928;-65
2021/01/09 01:23:30;;;;;;;5.65;5.03;;;;;;;0.22;70.72;98336.41;1805772;79;20924;-65
2021/01/09 01:25:57;;;;;;;5.25;4.65;;;;;;;0.23;70.67;98324.91;1805839;79;20924;-65
2021/01/09 01:28:26;;;;;;;5.10;4.60;;;;;;;0.25;70.62;98321.75;1805828;79;21366;-66
2021/01/09 01:30:54;;;;;;;10.03;8.08;;;;;;;0.27;69.95;98325.24;1805718;79;22096;-65
2021/01/09 01:33:22;;;;;;;14.78;12.68;;;;;;;0.27;70.13;98326.56;1805835;79;20869;-65
2021/01/09 01:35:50;;;;;;;13.75;12.00;;;;;;;0.29;70.25;98329.16;1805748;79;20913;-66
2021/01/09 01:38:19;;;;;;;11.83;9.68;;;;;;;0.28;70.48;98330.91;1805801;79;20948;-65
2021/01/09 01:40:46;;;;;;;10.23;8.73;;;;;;;0.30;70.73;98331.76;1805868;78;21344;-65
2021/01/09 01:43:14;;;;;;;8.68;7.28;;;;;;;0.30;70.76;98331.76;1805753;79;20925;-65
2021/01/09 01:45:42;;;;;;;8.53;7.70;;;;;;;0.31;70.68;98332.15;1805788;78;20904;-66
2021/01/09 01:48:10;;;;;;;7.30;6.60;;;;;;;0.32;70.44;98326.43;1805686;79;20905;-65
2021/01/09 01:50:39;;;;;;;9.70;8.60;;;;;;;0.31;70.70;98326.86;1805872;79;20901;-65
2021/01/09 01:53:09;;;;;;;21.25;15.18;;;;;;;0.31;70.99;98318.94;1805829;79;21198;-65
2021/01/09 01:55:38;;;;;;;23.12;17.00;;;;;;;0.32;71.11;98319.36;1805754;79;20980;-64
2021/01/09 01:58:06;;;;;;;24.67;17.02;;;;;;;0.32;71.05;98318.03;1805717;79;20893;-64
2021/01/09 02:00:33;;;;;;;23.55;16.60;;;;;;;0.31;70.96;98320.26;1805755;79;20925;-64
2021/01/09 02:03:01;;;;;;;21.40;16.05;;;;;;;0.31;71.13;98320.26;1805784;79;20892;-65
2021/01/09 02:05:35;;;;;;;19.05;13.80;;;;;;;0.30;71.45;98309.30;1805758;79;21362;-65
2021/01/09 02:08:05;;;;;;;18.82;14.70;;;;;;;0.31;71.77;98316.30;1805739;79;20889;-65
2021/01/09 02:10:33;;;;;;;19.17;13.53;;;;;;;0.30;71.96;98307.09;1805876;79;20929;-65
2021/01/09 02:13:19;;;;;;;16.27;12.73;;;;;;;0.29;72.03;98306.70;1805757;79;20916;-65
2021/01/09 02:15:52;;;;;;;13.20;10.88;;;;;;;0.27;72.21;98306.75;1805756;79;20976;-65
2021/01/09 02:18:20;;;;;;;12.68;11.30;;;;;;;0.25;72.45;98303.73;1805787;79;21193;-64
2021/01/09 02:20:50;;;;;;;11.88;10.50;;;;;;;0.23;72.50;98306.41;1805787;79;20996;-64
2021/01/09 02:23:25;;;;;;;11.18;9.63;;;;;;;0.22;72.63;98306.03;1753263;79;20964;-64
2021/01/09 02:25:53;;;;;;;10.50;9.40;;;;;;;0.20;72.52;98311.78;1805831;79;20877;-65
2021/01/09 02:28:21;;;;;;;11.18;9.98;;;;;;;0.19;72.85;98307.44;1805766;79;20857;-65
2021/01/09 02:30:48;;;;;;;10.32;8.10;;;;;;;0.18;73.01;98314.94;1805678;79;21397;-64
2021/01/09 02:33:16;;;;;;;7.90;7.15;;;;;;;0.16;73.22;98310.16;1805753;79;20964;-65
2021/01/09 02:35:44;;;;;;;10.98;7.53;;;;;;;0.13;73.42;98316.85;1805866;79;21000;-65
2021/01/09 02:38:13;;;;;;;8.58;7.67;;;;;;;0.11;73.46;98310.30;1805706;79;20901;-66
2021/01/09 02:40:41;;;;;;;8.58;7.62;;;;;;;0.10;73.62;98308.55;1805796;79;20913;-66
2021/01/09 02:43:12;;;;;;;10.13;8.78;;;;;;;0.07;73.72;98308.63;1805731;79;21130;-66
2021/01/09 02:45:40;;;;;;;9.63;8.73;;;;;;;0.08;73.66;98317.41;1805663;79;20916;-66
2021/01/09 02:48:09;;;;;;;9.13;8.23;;;;;;;0.04;73.59;98318.42;1805833;79;20969;-66
2021/01/09 02:50:37;;;;;;;9.83;8.83;;;;;;;0.02;73.58;98322.87;1805737;79;20961;-66
2021/01/09 02:53:04;;;;;;;10.05;8.38;;;;;;;-0.01;73.65;98318.55;1805771;79;21015;-66
2021/01/09 02:55:32;;;;;;;8.33;7.50;;;;;;;-0.04;73.82;98319.96;1805790;79;21367;-64
2021/01/09 02:58:01;;;;;;;9.10;8.10;;;;;;;-0.07;74.05;98316.94;1805620;79;20932;-65
2021/01/09 03:00:30;;;;;;;10.00;8.33;;;;;;;-0.11;74.18;98315.31;1805820;79;21339;-63
2021/01/09 03:02:57;;;;;;;15.03;11.35;;;;;;;-0.14;74.36;98318.03;1805654;79;20921;-65
2021/01/09 03:05:26;;;;;;;14.78;11.53;;;;;;;-0.20;74.29;98310.28;1805748;79;20956;-64
2021/01/09 03:07:53;;;;;;;13.13;11.75;;;;;;;-0.25;74.32;98316.15;1805707;79;21347;-64
2021/01/09 03:10:21;;;;;;;19.32;15.35;;;;;;;-0.28;74.44;98316.23;1805712;79;20932;-65
2021/01/09 03:12:48;;;;;;;21.93;15.10;;;;;;;-0.33;74.37;98318.98;1805694;79;20987;-65
2021/01/09 03:15:16;;;;;;;23.42;17.40;;;;;;;-0.39;74.33;98312.55;1805678;79;20925;-65
2021/01/09 03:17:43;;;;;;;25.32;16.40;;;;;;;-0.45;74.52;98314.89;1805682;79;20912;-65
2021/01/09 03:20:13;;;;;;;22.35;15.68;;;;;;;-0.50;74.75;98313.30;1805783;78;21196;-65
2021/01/09 03:22:42;;;;;;;18.23;13.25;;;;;;;-0.57;74.77;98311.24;1805748;79;21485;-65
2021/01/09 03:25:12;;;;;;;17.67;13.95;;;;;;;-0.63;74.97;98312.28;1805820;79;21334;-65
2021/01/09 03:27:39;;;;;;;14.00;11.88;;;;;;;-0.69;75.16;98311.55;1805700;79;21454;-65
2021/01/09 03:30:10;;;;;;;12.63;10.38;;;;;;;-0.77;75.56;98309.14;1805752;79;20929;-66
2021/01/09 03:32:37;;;;;;;12.07;9.93;;;;;;;-0.84;75.83;98313.67;1805790;79;21432;-66
2021/01/09 03:35:07;;;;;;;13.05;11.08;;;;;;;-0.93;76.04;98312.14;1805709;79;20992;-66
2021/01/09 03:37:35;;;;;;;12.75;11.12;;;;;;;-0.98;76.42;98318.42;1805817;79;21449;-66
2021/01/09 03:40:04;;;;;;;12.15;9.80;;;;;;;-1.04;76.81;98316.82;1805701;79;20920;-65
2021/01/09 03:42:33;;;;;;;12.10;9.90;;;;;;;-1.10;77.07;98320.91;1805605;79;20901;-65
2021/01/09 03:45:01;;;;;;;13.75;9.93;;;;;;;-1.13;77.51;98320.52;1805702;78;22369;-65
2021/01/09 03:47:29;;;;;;;13.30;11.43;;;;;;;-1.15;77.78;98320.13;1805673;79;20968;-64
2021/01/09 03:49:57;;;;;;;12.13;9.65;;;;;;;-1.17;78.01;98321.48;1805804;79;21418;-64
2021/01/09 03:52:26;;;;;;;11.05;8.78;;;;;;;-1.17;78.26;98324.13;1805692;79;20913;-64
2021/01/09 03:54:53;;;;;;;10.43;9.33;;;;;;;-1.17;78.46;98323.27;1805674;79;20924;-64
2021/01/09 03:57:22;;;;;;;8.90;7.92;;;;;;;-1.16;78.58;98327.65;1805780;79;22148;-64
2021/01/09 03:59:50;;;;;;;11.50;9.90;;;;;;;-1.17;78.70;98329.39;1805614;79;20928;-65
2021/01/09 04:02:19;;;;;;;12.50;9.55;;;;;;;-1.14;78.91;98328.47;1805704;79;20972;-64
2021/01/09 04:04:47;;;;;;;12.50;10.32;;;;;;;-1.15;79.05;98328.04;1805647;79;21981;-65
2021/01/09 04:07:14;;;;;;;13.80;10.32;;;;;;;-1.13;79.12;98333.70;1805667;79;20861;-65
2021/01/09 04:09:42;;;;;;;12.82;9.85;;;;;;;-1.13;79.27;98331.06;1805619;79;21413;-65
2021/01/09 04:12:09;;;;;;;13.58;10.25;;;;;;;-1.11;79.37;98329.25;1805747;79;21331;-65
2021/01/09 04:14:37;;;;;;;11.43;10.23;;;;;;;-1.10;79.37;98335.41;1805665;79;20952;-65
2021/01/09 04:17:05;;;;;;;12.28;10.13;;;;;;;-1.10;79.41;98336.27;1805677;79;21012;-65
2021/01/09 04:19:33;;;;;;;11.15;9.90;;;;;;;-1.08;79.45;98330.11;1805674;79;20924;-65
2021/01/09 04:22:00;;;;;;;11.08;9.15;;;;;;;-1.07;79.54;98333.14;1805740;79;22797;-65
2021/01/09 04:24:28;;;;;;;11.95;10.68;;;;;;;-1.06;79.61;98337.52;1805614;79;20968;-65
2021/01/09 04:26:58;;;;;;;11.73;9.50;;;;;;;-1.05;79.66;98342.75;1805703;79;20969;-65
2021/01/09 04:29:26;;;;;;;12.75;10.63;;;;;;;-1.05;79.72;98344.07;1805561;79;20976;-65
2021/01/09 04:31:54;;;;;;;13.72;12.15;;;;;;;-1.01;79.78;98347.50;1805748;79;20901;-65
2021/01/09 04:34:24;;;;;;;13.00;11.68;;;;;;;-1.01;79.80;98350.13;1805725;79;21364;-65
2021/01/09 04:36:53;;;;;;;14.47;13.00;;;;;;;-0.99;79.87;98345.71;1805585;79;20944;-65
2021/01/09 04:39:20;;;;;;;19.48;15.72;;;;;;;-0.98;79.93;98354.02;1805675;79;20881;-65
2021/01/09 04:41:48;;;;;;;18.40;14.43;;;;;;;-0.98;80.01;98348.74;1805645;79;20957;-65
2021/01/09 04:44:15;;;;;;;13.65;11.80;;;;;;;-0.95;80.07;98352.63;1805637;79;21028;-65
2021/01/09 04:46:55;;;;;;;11.85;8.98;;;;;;;-0.94;80.09;98351.73;1805736;79;21448;-64
2021/01/09 04:49:25;;;;;;;10.58;7.78;;;;;;;-0.93;79.79;98351.70;1805719;79;20917;-65
2021/01/09 04:51:54;;;;;;;8.60;6.67;;;;;;;-0.92;78.81;98356.51;1805665;79;20913;-65
2021/01/09 04:54:23;;;;;;;8.88;7.33;;;;;;;-0.91;77.78;98360.43;1805740;79;21323;-65
2021/01/09 04:56:53;;;;;;;10.08;7.47;;;;;;;-0.88;76.95;98364.77;1805859;79;21464;-65
2021/01/09 04:59:21;;;;;;;8.68;7.25;;;;;;;-0.85;76.38;98364.70;1805934;79;22102;-65
2021/01/09 05:01:50;;;;;;;8.65;6.72;;;;;;;-0.82;75.70;98361.11;1805833;79;20929;-66
2021/01/09 05:04:20;;;;;;;9.18;6.83;;;;;;;-0.79;75.43;98359.28;1805890;79;21422;-65
2021/01/09 05:06:48;;;;;;;7.53;6.50;;;;;;;-0.74;75.29;98365.30;1805769;79;20972;-66
2021/01/09 05:09:16;;;;;;;8.83;6.00;;;;;;;-0.71;75.01;98366.12;1805776;79;21509;-66
2021/01/09 05:11:45;;;;;;;6.97;6.28;;;;;;;-0.67;74.92;98367.80;1805799;79;21182;-66
2021/01/09 05:14:12;;;;;;;12.53;6.72;;;;;;;-0.64;75.06;98374.31;1805817;79;20928;-65
2021/01/09 05:16:40;;;;;;;10.00;6.35;;;;;;;-0.61;74.67;98378.20;1805836;79;20873;-64
2021/01/09 05:19:08;;;;;;;8.38;7.08;;;;;;;-0.58;74.66;98376.80;1805736;79;20968;-64
2021/01/09 05:21:37;;;;;;;8.65;7.12;;;;;;;-0.55;74.37;98380.23;1805846;79;20972;-65
2021/01/09 05:24:07;;;;;;;10.70;7.00;;;;;;;-0.53;74.17;98374.05;1805810;79;21436;-65
2021/01/09 05:26:37;;;;;;;8.25;7.40;;;;;;;-0.52;74.32;98377.97;1805892;79;20968;-65
2021/01/09 05:29:06;;;;;;;10.35;7.90;;;;;;;-0.49;74.13;98380.54;1751130;79;21007;-65
2021/01/09 05:31:36;;;;;;;8.50;6.45;;;;;;;-0.46;74.01;98388.34;1805906;79;21347;-64
2021/01/09 05:34:06;;;;;;;8.73;7.10;;;;;;;-0.46;73.72;98388.34;1805805;79;21011;-65
2021/01/09 05:36:34;;;;;;;8.08;6.87;;;;;;;-0.44;73.75;98391.84;1805837;79;20963;-65
2021/01/09 05:39:03;;;;;;;8.70;6.70;;;;;;;-0.41;73.80;98399.67;1805834;79;20936;-64
2021/01/09 05:41:32;;;;;;;7.72;6.55;;;;;;;-0.39;73.37;98400.50;1805803;79;20928;-64
2021/01/09 05:44:06;;;;;;;6.67;5.92;;;;;;;-0.36;72.79;98395.61;1805748;79;20908;-65
2021/01/09 05:46:36;;;;;;;6.70;5.40;;;;;;;-0.34;72.49;98399.53;1805836;79;20913;-64
2021/01/09 05:49:05;;;;;;;7.15;5.42;;;;;;;-0.32;72.28;98401.66;1805752;79;21350;-66
2021/01/09 05:51:35;;;;;;;5.70;5.03;;;;;;;-0.30;71.71;98409.08;1805626;79;20881;-65
2021/01/09 05:54:03;;;;;;;5.87;4.90;;;;;;;-0.24;71.45;98419.48;1805896;79;20920;-66
2021/01/09 05:56:30;;;;;;;5.92;4.53;;;;;;;-0.22;71.07;98409.74;1805731;79;20921;-65
2021/01/09 05:58:58;;;;;;;7.05;6.15;;;;;;;-0.19;71.19;98412.31;1805763;79;20967;-65
2021/01/09 06:01:29;;;;;;;7.85;5.90;;;;;;;-0.18;70.70;98410.09;1805836;79;21200;-65
2021/01/09 06:04:17;;;;;;;6.10;5.50;;;;;;;-0.13;70.83;98414.79;1805446;79;20983;-65
2021/01/09 06:06:49;;;;;;;7.83;5.97;;;;;;;-0.10;70.72;98425.27;1781570;79;21011;-66
2021/01/09 06:09:23;;;;;;;6.08;5.37;;;;;;;-0.08;70.67;98421.27;1805675;78;21417;-65
2021/01/09 06:11:54;;;;;;;6.33;5.65;;;;;;;-0.07;70.76;98429.16;1805949;79;21350;-65
2021/01/09 06:14:25;;;;;;;6.72;5.72;;;;;;;-0.06;70.89;98424.30;1805837;79;21377;-64
2021/01/09 06:16:54;;;;;;;7.75;5.58;;;;;;;-0.05;70.85;98431.33;1805674;79;20928;-65
2021/01/09 06:19:22;;;;;;;7.45;5.87;;;;;;;-0.03;70.96;98433.92;1781878;79;21350;-64
2021/01/09 06:21:53;;;;;;;7.20;6.35;;;;;;;-0.02;71.00;98432.56;1805784;79;20912;-64
2021/01/09 06:24:22;;;;;;;6.80;6.10;;;;;;;-0.01;70.99;98430.31;1805720;79;20928;-65
2021/01/09 06:26:49;;;;;;;6.62;5.92;;;;;;;-0.01;70.97;98435.59;1805792;79;21241;-64
2021/01/09 06:29:26;;;;;;;5.65;5.03;;;;;;;0.01;70.88;98435.56;1805647;79;20937;-65
2021/01/09 06:32:04;;;;;;;6.78;5.33;;;;;;;0.02;70.91;98432.45;1805823;79;20920;-65
2021/01/09 06:34:32;;;;;;;6.22;5.10;;;;;;;0.03;70.93;98433.73;1805710;79;20920;-64
2021/01/09 06:37:02;;;;;;;5.50;4.37;;;;;;;0.03;70.97;98434.20;1805880;79;21320;-65
2021/01/09 06:39:38;;;;;;;7.35;6.53;;;;;;;0.04;71.13;98439.91;1805700;79;21351;-65
2021/01/09 06:42:09;;;;;;;7.53;5.83;;;;;;;0.05;71.10;98446.91;1781382;79;20942;-63
2021/01/09 06:44:39;;;;;;;5.75;4.75;;;;;;;0.05;70.94;98444.27;1782347;79;21000;-65
2021/01/09 06:47:07;;;;;;;10.20;6.62;;;;;;;0.05;71.10;98448.22;1805726;79;20996;-65
2021/01/09 06:49:34;;;;;;;7.03;6.30;;;;;;;0.06;71.04;98448.65;1726681;79;20897;-65
2021/01/09 06:52:02;;;;;;;8.43;6.25;;;;;;;0.07;71.01;98452.56;1805761;78;21375;-65
2021/01/09 06:54:42;;;;;;;8.05;6.08;;;;;;;0.08;70.91;98450.78;1805661;79;20944;-66
2021/01/09 06:57:18;;;;;;;10.23;7.55;;;;;;;0.09;70.91;98451.20;1802261;79;21015;-66
2021/01/09 06:59:50;;;;;;;8.93;7.87;;;;;;;0.08;71.04;98452.10;1805746;79;21189;-65
2021/01/09 07:02:27;;;;;;;8.75;7.25;;;;;;;0.09;71.20;98454.70;1805860;79;21429;-64
2021/01/09 07:05:06;;;;;;;7.92;6.95;;;;;;;0.09;71.26;98457.81;1805775;79;22288;-66
2021/01/09 07:07:52;;;;;;;6.53;5.58;;;;;;;0.08;71.17;98455.63;1805590;79;20924;-65
2021/01/09 07:10:26;;;;;;;7.25;6.35;;;;;;;0.10;70.95;98466.16;1805727;79;20921;-65
2021/01/09 07:13:04;;;;;;;6.80;5.92;;;;;;;0.12;71.17;98469.62;1805850;79;20912;-64
2021/01/09 07:15:33;;;;;;;9.05;7.58;;;;;;;0.13;71.22;98473.54;1805788;79;20928;-66
2021/01/09 07:18:05;;;;;;;6.80;5.78;;;;;;;0.14;71.30;98481.00;1805642;79;21359;-65
2021/01/09 07:20:45;;;;;;;8.13;7.33;;;;;;;0.14;70.92;98480.57;1782268;79;21466;-65
2021/01/09 07:23:13;;;;;;;6.62;5.22;;;;;;;0.15;70.92;98480.96;1805830;79;20913;-64
2021/01/09 07:25:44;;;;;;;7.03;5.28;;;;;;;0.20;71.37;98489.23;1781387;79;21351;-65
2021/01/09 07:28:16;;;;;;;6.62;5.97;;;;;;;0.22;71.25;98493.58;1805788;79;20901;-65
2021/01/09 07:30:45;;;;;;;;;;;;;;;0.23;71.30;98493.97;1808429;79;22098;-65
2021/01/09 07:33:15;;;;;;;7.83;6.30;;;;;;;0.25;71.20;98500.08;1805610;79;20129;-64
2021/01/09 07:35:44;;;;;;;7.67;6.83;;;;;;;0.24;70.75;98504.97;1805430;79;20929;-64
2021/01/09 07:38:13;;;;;;;7.97;7.17;;;;;;;0.25;70.69;98509.32;1805677;79;20866;-64
2021/01/09 07:40:56;;;;;;;11.50;8.55;;;;;;;0.27;70.99;98510.17;1805769;79;20906;-65
2021/01/09 07:43:42;;;;;;;10.35;9.13;;;;;;;0.27;71.20;98511.49;1805792;79;21422;-65
2021/01/09 07:46:30;;;;;;;13.53;10.45;;;;;;;0.27;71.40;98511.49;1805572;79;20932;-64
2021/01/09 07:49:00;;;;;;;11.55;9.75;;;;;;;0.28;71.77;98511.03;1805689;79;20955;-64
2021/01/09 07:51:57;;;;;;;12.35;9.93;;;;;;;0.31;71.88;98518.41;1805641;79;20984;-66
2021/01/09 07:54:40;;;;;;;9.10;8.10;;;;;;;0.31;72.03;98520.20;1805765;79;21015;-67
2021/01/09 07:57:23;;;;;;;9.50;8.00;;;;;;;0.33;71.81;98516.62;1805793;79;22395;-64
2021/01/09 08:00:01;;;;;;;8.10;7.17;;;;;;;0.34;71.61;98518.33;1805737;79;20940;-63
2021/01/09 08:02:41;;;;;;;7.78;6.97;;;;;;;0.35;71.59;98521.40;1805720;79;21004;-64
2021/01/09 08:05:20;;;;;;;10.35;8.90;;;;;;;0.35;71.48;98516.58;1805744;79;21478;-63
2021/01/09 08:07:56;;;;;;;8.43;7.53;;;;;;;0.38;71.50;98522.22;1805591;79;20992;-65
2021/01/09 08:10:32;;;;;;;11.90;8.75;;;;;;;0.39;71.73;98521.32;1805595;79;22106;-65
2021/01/09 08:13:08;;;;;;;11.60;9.43;;;;;;;0.42;71.79;98523.88;1805253;79;20928;-65
2021/01/09 08:15:38;;;;;;;13.38;11.25;;;;;;;0.44;71.93;98531.31;1805648;79;20920;-64
2021/01/09 08:18:07;;;;;;;18.05;13.38;;;;;;;0.45;71.99;98531.27;1805588;79;20917;-65
2021/01/09 08:20:36;;;;;;;14.18;10.58;;;;;;;0.48;72.06;98534.30;1805776;79;20992;-65
2021/01/09 08:23:05;;;;;;;9.08;8.03;;;;;;;0.49;72.60;98531.61;1805665;79;21384;-65
2021/01/09 08:25:42;;;;;;;9.90;8.35;;;;;;;0.49;73.13;98534.69;1805601;79;20889;-65
2021/01/09 08:28:11;;;;;;;8.08;6.92;;;;;;;0.49;73.54;98533.36;1805680;79;20873;-64
2021/01/09 08:30:40;;;;;;;7.65;6.83;;;;;;;0.47;73.89;98528.59;1726811;79;20968;-64
2021/01/09 08:33:09;;;;;;;7.87;7.12;;;;;;;0.45;74.11;98534.38;1805855;79;21008;-65
2021/01/09 08:35:45;;;;;;;8.85;7.95;;;;;;;0.45;74.29;98534.38;1805739;79;20968;-64
2021/01/09 08:38:12;;;;;;;9.48;7.92;;;;;;;0.44;74.52;98535.27;1805948;79;20936;-65
2021/01/09 08:40:46;;;;;;;9.40;8.33;;;;;;;0.46;74.46;98540.09;1805816;79;20916;-65
2021/01/09 08:43:13;;;;;;;12.45;9.30;;;;;;;0.46;74.47;98538.77;1805942;79;20909;-65
2021/01/09 08:45:54;;;;;;;9.35;7.78;;;;;;;0.48;74.65;98540.44;1805852;79;20921;-66
2021/01/09 08:48:29;;;;;;;8.88;7.65;;;;;;;0.50;74.68;98533.80;1805829;79;21124;-66
2021/01/09 08:51:16;;;;;;;7.33;6.62;;;;;;;0.51;74.81;98538.18;1805396;79;21390;-63
2021/01/09 08:54:07;;;;;;;7.15;6.37;;;;;;;0.55;74.80;98533.20;1805857;78;20908;-65
2021/01/09 08:56:35;;;;;;;7.42;6.72;;;;;;;0.58;74.60;98537.09;1805905;79;21335;-66
2021/01/09 08:59:05;;;;;;;8.00;6.30;;;;;;;0.61;74.33;98531.72;1805792;79;21358;-65
2021/01/09 09:01:45;;;;;;;7.92;6.92;;;;;;;0.62;74.07;98525.54;1805875;79;21428;-66
2021/01/09 09:04:14;;;;;;;7.15;6.45;;;;;;;0.64;73.91;98526.35;1805795;79;20936;-65
2021/01/09 09:06:45;;;;;;;8.10;6.85;;;;;;;0.64;73.62;98534.28;1781544;79;21342;-66
2021/01/09 09:09:15;;;;;;;9.70;8.65;;;;;;;0.66;73.66;98540.42;1806218;79;20921;-66
2021/01/09 09:11:52;;;;;;;9.18;8.15;;;;;;;0.68;73.87;98528.48;1814996;79;20912;-65
2021/01/09 09:14:20;;;;;;;9.00;7.80;;;;;;;0.69;73.86;98527.12;1814942;78;21349;-63
2021/01/09 09:16:59;;;;;;;8.65;7.62;;;;;;;0.72;73.81;98529.65;1814849;79;20964;-66
2021/01/09 09:19:27;;;;;;;9.50;7.53;;;;;;;0.74;73.58;98526.11;1814980;78;21362;-64
2021/01/09 09:21:59;;;;;;;8.90;7.83;;;;;;;0.74;73.46;98528.28;1814879;79;20897;-65
2021/01/09 09:24:41;;;;;;;8.28;7.47;;;;;;;0.74;73.21;98528.75;1814402;79;20916;-65
2021/01/09 09:27:28;;;;;;;7.60;6.80;;;;;;;0.72;73.04;98523.50;1814797;79;21427;-65
2021/01/09 09:30:15;;;;;;;8.43;7.62;;;;;;;0.74;72.88;98527.42;1814897;79;21440;-65
2021/01/09 09:32:45;;;;;;;7.53;6.75;;;;;;;0.73;72.61;98530.54;1815032;79;20920;-65
2021/01/09 09:35:27;;;;;;;8.50;7.60;;;;;;;0.72;72.34;98525.68;1814868;79;20927;-64
2021/01/09 09:37:59;;;;;;;9.03;7.78;;;;;;;0.75;72.25;98523.42;1814996;79;21429;-66
2021/01/09 09:40:32;;;;;;;9.70;8.70;;;;;;;0.76;72.16;98520.31;1814926;79;22265;-64
2021/01/09 09:43:16;;;;;;;8.25;7.40;;;;;;;0.79;71.70;98514.94;1814848;79;20940;-65
2021/01/09 09:45:58;;;;;;;7.45;6.60;;;;;;;0.82;71.13;98521.46;1814895;79;20913;-65
2021/01/09 09:48:31;;;;;;;7.80;7.00;;;;;;;0.86;70.63;98509.91;1814877;79;21485;-65
2021/01/09 09:51:08;;;;;;;7.72;7.03;;;;;;;0.92;69.58;98503.59;1814945;79;20964;-65
2021/01/09 09:53:40;;;;;;;7.90;7.08;;;;;;;0.96;69.48;98514.00;1814840;79;21315;-64
2021/01/09 09:56:15;;;;;;;6.60;6.00;;;;;;;1.01;68.94;98506.83;1814853;79;20979;-64
2021/01/09 09:58:43;;;;;;;6.00;5.30;;;;;;;1.06;68.41;98503.58;1814895;79;20900;-65
2021/01/09 10:01:21;;;;;;;5.25;4.67;;;;;;;1.12;67.49;98496.38;1814828;79;20921;-65
2021/01/09 10:03:49;;;;;;;5.85;4.53;;;;;;;1.16;66.32;98500.67;1814784;79;20943;-65
2021/01/09 10:06:18;;;;;;;5.65;4.60;;;;;;;1.21;66.44;98490.80;1814875;79;21342;-66
2021/01/09 10:08:45;;;;;;;5.50;4.95;;;;;;;1.26;66.37;98492.41;1814837;79;20892;-64
2021/01/09 10:11:13;;;;;;;5.37;4.50;;;;;;;1.31;65.90;98490.95;1807989;79;20912;-64
2021/01/09 10:13:40;;;;;;;5.60;4.97;;;;;;;1.38;65.51;98488.98;1805737;79;20905;-66
2021/01/09 10:16:09;;;;;;;4.90;4.20;;;;;;;1.47;65.45;98490.45;1805803;79;20964;-65
2021/01/09 10:18:37;;;;;;;5.85;4.45;;;;;;;1.55;64.85;98491.11;1805712;79;22285;-65
2021/01/09 10:21:05;;;;;;;5.47;4.97;;;;;;;1.67;64.91;98486.75;1805715;79;20960;-63
2021/01/09 10:23:32;;;;;;;5.97;4.45;;;;;;;1.77;64.02;98484.20;1805650;79;20972;-65
2021/01/09 10:26:00;;;;;;;4.70;4.20;;;;;;;1.88;63.70;98485.19;1805727;79;20933;-64
2021/01/09 10:28:28;;;;;;;4.20;3.40;;;;;;;1.97;63.31;98491.94;1805783;79;21410;-66
2021/01/09 10:30:55;;;;;;;4.05;3.60;;;;;;;2.05;62.69;98496.55;1805755;79;21285;-66
2021/01/09 10:33:24;;;;;;;5.58;4.25;;;;;;;2.09;61.59;98490.22;1805660;79;20921;-65
2021/01/09 10:35:51;;;;;;;5.15;4.08;;;;;;;2.15;62.08;98499.75;1805682;79;20933;-65
2021/01/09 10:38:18;;;;;;;4.85;4.03;;;;;;;2.19;61.56;98493.88;1805684;79;20968;-66
2021/01/09 10:40:46;;;;;;;4.85;3.87;;;;;;;2.22;61.56;98493.78;1805796;79;21446;-66
2021/01/09 10:43:14;;;;;;;5.20;4.33;;;;;;;2.27;60.71;98494.05;1805770;79;21375;-65
2021/01/09 10:45:42;;;;;;;4.33;3.85;;;;;;;2.30;60.69;98489.97;1805584;79;20873;-65
2021/01/09 10:48:10;;;;;;;5.67;4.78;;;;;;;2.32;60.50;98489.91;1805680;79;20984;-65
2021/01/09 10:50:38;;;;;;;6.58;5.33;;;;;;;2.32;60.39;98477.98;1805733;79;20969;-65
2021/01/09 10:53:05;;;;;;;5.03;3.83;;;;;;;2.37;60.47;98483.98;1751119;79;21027;-64
2021/01/09 10:55:36;;;;;;;4.62;4.15;;;;;;;2.40;59.97;98484.31;1805735;79;21192;-65
2021/01/09 10:58:03;;;;;;;4.12;3.72;;;;;;;2.42;60.52;98484.68;1805577;79;20996;-65
2021/01/09 11:00:30;;;;;;;3.95;3.37;;;;;;;2.44;60.54;98478.85;1805757;79;20909;-65
2021/01/09 11:02:59;;;;;;;3.30;3.00;;;;;;;2.45;58.40;98476.63;1805653;79;20956;-65
2021/01/09 11:05:30;;;;;;;3.87;3.10;;;;;;;2.49;59.77;98481.34;1805684;79;20991;-65
2021/01/09 11:07:56;;;;;;;4.95;3.25;;;;;;;2.52;59.32;98482.56;1805672;79;21364;-66
2021/01/09 11:10:27;;;;;;;4.62;3.33;;;;;;;2.50;58.63;98468.50;1805515;78;21039;-65
2021/01/09 11:12:57;;;;;;;4.25;3.30;;;;;;;2.53;59.18;98481.19;1804301;79;20995;-67
2021/01/09 11:15:25;;;;;;;4.00;3.15;;;;;;;2.56;58.37;98482.02;1805693;79;21020;-65
2021/01/09 11:17:53;;;;;;;4.65;3.87;;;;;;;2.53;57.91;98478.53;1805684;79;20901;-64
2021/01/09 11:20:22;;;;;;;5.60;4.78;;;;;;;2.56;58.15;98480.69;1805700;79;21358;-65
2021/01/09 11:22:49;;;;;;;6.05;4.53;;;;;;;2.56;59.64;98478.05;1805578;79;20979;-65
2021/01/09 11:25:17;;;;;;;4.30;3.90;;;;;;;2.54;60.10;98480.75;1805672;79;20972;-65
2021/01/09 11:27:44;;;;;;;5.10;4.22;;;;;;;2.53;60.26;98484.31;1805593;79;20909;-64
2021/01/09 11:30:15;;;;;;;6.47;4.62;;;;;;;2.50;60.46;98483.95;1805750;79;20872;-65
2021/01/09 11:32:42;;;;;;;6.58;4.92;;;;;;;2.46;60.85;98482.34;1805768;79;21339;-65
2021/01/09 11:35:11;;;;;;;6.22;5.42;;;;;;;2.43;60.81;98483.77;1805589;79;20989;-65
2021/01/09 11:37:39;;;;;;;7.78;6.25;;;;;;;2.40;61.45;98485.64;1805630;79;20980;-64
2021/01/09 11:40:08;;;;;;;7.40;6.28;;;;;;;2.35;60.69;98480.53;1805695;79;20987;-65
2021/01/09 11:42:35;;;;;;;6.60;5.60;;;;;;;2.31;61.32;98477.56;1805722;79;20921;-65
2021/01/09 11:45:05;;;;;;;7.55;6.20;;;;;;;2.29;61.69;98479.41;1805591;79;21197;-64
2021/01/09 11:47:33;;;;;;;7.37;5.08;;;;;;;2.24;61.44;98487.95;1805595;79;20925;-65
2021/01/09 11:50:01;;;;;;;7.62;5.80;;;;;;;2.20;61.55;98486.35;1805697;79;21381;-65
2021/01/09 11:52:30;;;;;;;7.87;6.12;;;;;;;2.11;61.29;98484.86;1805649;79;20972;-64